Time;durP1;ratioP1;P1;durP2;ratioP2;P2;SDS_P1;SDS_P2;PMS_P1;PMS_P2;Temp;Humidity;BMP_temperature;BMP_pressure;BME280_temperature;BME280_humidity;BME280_pressure;Samples;Min_cycle;Max_cycle;Signal;HPM_P1;HPM_P2
2024/02/17 14:22:58;;;;;;;7.63;6.28;;;11.80;86.40;;;;;;5041142;27;1300007;-90
2024/02/17 14:32:19;;;;;;;9.30;7.03;;;11.80;85.50;;;;;;5050478;28;20278;-90
2024/02/17 14:34:49;;;;;;;9.02;7.45;;;11.90;83.40;;;;;;5037487;28;20182;-91
2024/02/17 14:37:16;;;;;;;9.90;7.78;;;11.90;78.30;;;;;;5028280;28;20202;-90
2024/02/17 14:39:44;;;;;;;7.93;7.13;;;12.00;77.00;;;;;;5075251;28;20200;-89
2024/02/17 14:42:11;;;;;;;8.75;7.38;;;12.10;75.20;;;;;;5086031;28;20578;-89
2024/02/17 14:44:40;;;;;;;9.82;7.95;;;12.20;75.30;;;;;;5099554;28;20215;-90
2024/02/17 14:47:07;;;;;;;10.80;7.53;;;12.20;75.30;;;;;;5088086;28;20226;-89
2024/02/17 14:49:34;;;;;;;11.20;7.28;;;12.20;75.40;;;;;;5089087;28;20188;-90
2024/02/17 14:52:07;;;;;;;11.18;7.90;;;12.40;75.50;;;;;;5090509;28;20560;-92
2024/02/17 14:54:42;;;;;;;9.02;7.82;;;12.40;75.40;;;;;;5083718;28;20235;-92
2024/02/17 14:57:11;;;;;;;10.00;7.93;;;12.30;76.40;;;;;;5079071;28;20237;-90
2024/02/17 14:59:38;;;;;;;9.35;8.27;;;12.30;75.40;;;;;;5088541;28;20199;-90
2024/02/17 15:02:05;;;;;;;8.75;7.28;;;12.30;75.40;;;;;;5062711;28;20295;-92
2024/02/17 15:04:33;;;;;;;7.53;6.72;;;12.30;75.40;;;;;;5090615;28;20232;-91
2024/02/17 15:07:00;;;;;;;5.68;5.07;;;12.40;60.70;;;;;;5091751;28;20206;-92
2024/02/17 15:09:27;;;;;;;7.15;5.22;;;12.50;49.00;;;;;;5073440;28;20250;-92
2024/02/17 15:11:57;;;;;;;6.45;5.55;;;12.60;45.80;;;;;;5081223;28;20288;-92
2024/02/17 15:14:27;;;;;;;5.90;5.30;;;12.50;47.80;;;;;;5082508;28;20195;-90
2024/02/17 15:16:54;;;;;;;6.47;5.47;;;12.40;49.00;;;;;;5085909;28;20208;-91
2024/02/17 15:19:21;;;;;;;6.45;5.57;;;12.40;49.00;;;;;;5063542;28;20197;-91
2024/02/17 15:21:48;;;;;;;6.22;5.63;;;12.40;45.60;;;;;;5065975;28;20220;-91
2024/02/17 15:24:54;;;;;;;6.50;5.85;;;12.40;48.20;;;;;;5068220;28;20200;-91
2024/02/17 15:27:41;;;;;;;7.10;5.75;;;12.30;48.90;;;;;;5088391;28;20592;-91
2024/02/17 15:30:11;;;;;;;9.32;7.63;;;12.30;48.90;;;;;;5087787;28;20208;-91
2024/02/17 15:32:39;;;;;;;9.20;8.15;;;12.40;49.00;;;;;;5065550;28;20205;-91
2024/02/17 15:35:06;;;;;;;9.05;6.22;;;12.50;49.00;;;;;;5076934;28;20592;-91
2024/02/17 15:37:34;;;;;;;12.20;10.52;;;12.40;49.00;;;;;;5062527;28;20646;-90
2024/02/17 15:40:03;;;;;;;11.43;10.20;;;12.40;49.00;;;;;;5074938;28;20306;-92
2024/02/17 15:42:30;;;;;;;7.03;6.32;;;12.40;49.50;;;;;;5057456;28;20248;-90
2024/02/17 15:44:57;;;;;;;6.97;6.03;;;12.40;49.00;;;;;;5050552;28;20197;-91
2024/02/17 15:47:25;;;;;;;6.65;5.90;;;12.30;48.90;;;;;;5063729;28;20234;-91
2024/02/17 15:49:53;;;;;;;8.35;6.53;;;12.30;48.90;;;;;;5076568;28;20197;-91
2024/02/17 15:52:19;;;;;;;8.52;6.80;;;12.20;50.20;;;;;;5042106;28;20227;-90
2024/02/17 15:54:46;;;;;;;8.02;7.10;;;12.20;51.50;;;;;;5076502;28;20546;-91
2024/02/17 15:57:13;;;;;;;10.35;7.20;;;12.10;52.70;;;;;;5058382;28;20224;-91
2024/02/17 15:59:42;;;;;;;8.05;7.18;;;12.00;54.40;;;;;;5076189;28;20646;-92
2024/02/17 16:02:09;;;;;;;9.95;7.13;;;11.90;55.60;;;;;;5056261;28;20253;-90
2024/02/17 16:04:38;;;;;;;9.80;7.60;;;11.80;57.90;;;;;;5040760;28;20189;-89
2024/02/17 16:07:12;;;;;;;8.50;6.70;;;11.80;58.90;;;;;;5057277;28;20259;-91
2024/02/17 16:13:23;;;;;;;10.32;8.02;;;11.80;62.90;;;;;;5022176;28;20617;-93
2024/02/17 17:13:58;;;;;;;15.63;11.60;;;10.00;98.30;;;;;;5055189;28;20263;-91
2024/02/17 17:16:54;;;;;;;13.57;10.82;;;9.80;99.70;;;;;;5056376;28;20210;-92
2024/02/17 17:23:21;;;;;;;16.63;11.18;;;9.90;99.90;;;;;;5036988;28;20217;-92
2024/02/17 17:33:06;;;;;;;15.05;11.13;;;9.60;99.90;;;;;;5008370;28;20221;-92
2024/02/17 18:49:37;;;;;;;19.75;14.40;;;9.20;99.90;;;;;;5041071;28;20205;-90
2024/02/17 18:52:31;;;;;;;23.23;15.75;;;9.10;99.90;;;;;;5035490;28;20565;-91
2024/02/17 18:55:06;;;;;;;21.58;15.90;;;9.30;99.90;;;;;;5044208;28;20541;-90
2024/02/17 19:00:55;;;;;;;24.65;16.40;;;9.00;99.90;;;;;;5042510;28;20210;-90
2024/02/17 19:03:24;;;;;;;22.80;15.32;;;9.10;99.90;;;;;;5046793;28;20226;-89
2024/02/17 19:06:03;;;;;;;24.10;15.48;;;9.10;99.90;;;;;;5034098;28;20651;-90
2024/02/17 19:08:30;;;;;;;21.70;15.95;;;9.30;99.90;;;;;;5052701;28;20206;-88
2024/02/17 19:10:57;;;;;;;21.15;15.07;;;9.30;99.90;;;;;;5052363;28;20209;-90
2024/02/17 19:13:23;;;;;;;20.92;15.25;;;9.40;99.90;;;;;;5032554;28;20215;-88
2024/02/17 19:15:50;;;;;;;21.98;15.02;;;9.50;99.90;;;;;;5035115;28;20195;-88
2024/02/17 19:18:17;;;;;;;20.92;15.45;;;9.50;99.90;;;;;;5034566;28;20202;-89
2024/02/17 19:20:44;;;;;;;22.80;16.48;;;9.60;99.90;;;;;;5036708;28;20556;-88
2024/02/17 19:23:20;;;;;;;25.67;17.58;;;9.50;99.90;;;;;;5035580;28;20221;-89
2024/02/17 19:25:48;;;;;;;22.77;16.20;;;9.30;99.90;;;;;;5017278;28;20547;-91
2024/02/17 19:28:15;;;;;;;22.02;15.85;;;9.20;99.90;;;;;;5053932;28;20197;-90
2024/02/17 19:30:46;;;;;;;19.20;15.60;;;9.10;99.90;;;;;;5052914;28;20242;-90
2024/02/17 19:35:59;;;;;;;21.98;15.75;;;9.10;99.90;;;;;;5043917;28;20262;-90
2024/02/17 19:38:45;;;;;;;24.60;16.85;;;9.10;99.90;;;;;;5053285;28;20208;-91
2024/02/17 19:41:19;;;;;;;24.70;16.60;;;9.20;99.90;;;;;;5046652;28;20202;-89
2024/02/17 19:46:58;;;;;;;24.80;16.63;;;8.90;99.90;;;;;;5044395;28;20212;-89
2024/02/17 19:49:33;;;;;;;25.38;16.65;;;9.00;99.90;;;;;;5025291;28;20205;-89
2024/02/17 19:52:02;;;;;;;27.48;17.83;;;8.90;99.90;;;;;;5056412;28;20263;-89
2024/02/17 20:00:51;;;;;;;37.38;26.05;;;8.60;99.90;;;;;;5700931;22;20217;-89
2024/02/17 20:19:59;;;;;;;30.40;19.98;;;8.80;99.90;;;;;;5025205;28;20781;-89
2024/02/17 20:22:33;;;;;;;32.70;20.60;;;8.80;99.90;;;;;;5034291;28;20218;-89
2024/02/17 20:25:00;;;;;;;32.28;19.73;;;8.80;99.90;;;;;;5059577;28;20284;-90
2024/02/17 20:27:34;;;;;;;29.35;18.83;;;8.80;99.90;;;;;;5068624;28;20201;-90
2024/02/17 20:30:01;;;;;;;26.73;18.90;;;8.80;99.90;;;;;;5076606;28;20205;-91
2024/02/17 20:32:41;;;;;;;26.58;19.15;;;8.80;99.90;;;;;;5074842;28;20193;-91
2024/02/17 20:35:14;;;;;;;28.13;18.98;;;8.80;99.90;;;;;;5074862;28;20235;-91
2024/02/17 20:37:43;;;;;;;24.17;17.60;;;8.80;99.90;;;;;;5040990;28;20752;-90
2024/02/17 20:40:12;;;;;;;24.00;17.75;;;9.00;99.90;;;;;;5049479;28;20637;-89
2024/02/17 20:42:44;;;;;;;23.80;16.52;;;9.10;99.90;;;;;;5073087;28;20248;-90
2024/02/17 20:47:52;;;;;;;21.83;15.88;;;9.30;99.90;;;;;;5042924;28;20220;-89
2024/02/17 20:50:25;;;;;;;24.30;16.58;;;9.30;99.90;;;;;;5068882;28;20194;-90
2024/02/17 20:52:52;;;;;;;23.25;16.75;;;9.30;99.90;;;;;;5068620;28;20263;-90
2024/02/17 20:55:20;;;;;;;23.00;16.83;;;9.40;99.90;;;;;;5067275;28;20208;-89
2024/02/17 20:57:49;;;;;;;21.02;15.80;;;9.40;99.90;;;;;;5058152;28;20226;-90
2024/02/17 21:00:17;;;;;;;20.55;15.63;;;9.50;99.90;;;;;;5054469;28;20201;-89
2024/02/17 21:09:33;;;;;;;26.00;16.95;;;9.20;99.90;;;;;;5050886;28;20252;-92
2024/02/17 21:15:33;;;;;;;25.55;17.85;;;9.00;99.90;;;;;;5040361;28;20316;-90
2024/02/17 21:18:01;;;;;;;28.42;18.60;;;8.90;99.90;;;;;;5052969;28;20202;-90
2024/02/17 21:20:29;;;;;;;27.23;19.27;;;8.80;99.90;;;;;;5048231;28;20202;-90
2024/02/17 21:23:04;;;;;;;28.15;18.95;;;8.80;99.90;;;;;;5052572;28;20233;-89
2024/02/17 21:25:48;;;;;;;28.38;18.67;;;8.90;99.90;;;;;;5047785;28;20193;-91
2024/02/17 21:28:16;;;;;;;25.63;17.63;;;8.80;99.90;;;;;;5049841;28;20198;-90
2024/02/17 21:30:43;;;;;;;24.27;17.17;;;8.90;99.90;;;;;;5053574;28;20228;-90
2024/02/17 21:38:52;;;;;;;25.42;18.17;;;9.10;99.90;;;;;;5046237;28;20194;-91
2024/02/17 21:41:25;;;;;;;24.02;16.75;;;9.10;99.90;;;;;;5048249;28;20205;-90
2024/02/17 21:43:53;;;;;;;25.98;17.17;;;9.10;99.90;;;;;;5051921;28;20234;-90
2024/02/17 21:46:19;;;;;;;20.13;16.02;;;9.10;99.90;;;;;;5047226;28;20194;-90
2024/02/17 21:48:47;;;;;;;23.15;16.95;;;9.10;99.90;;;;;;5051322;28;20240;-90
2024/02/17 21:51:15;;;;;;;21.42;15.98;;;9.30;99.90;;;;;;5051923;28;20206;-90
2024/02/17 21:53:43;;;;;;;23.38;16.02;;;9.50;99.90;;;;;;5048631;28;20198;-90
2024/02/17 21:56:12;;;;;;;21.00;15.50;;;9.60;99.90;;;;;;5050687;28;20304;-88
2024/02/17 21:58:43;;;;;;;23.40;16.50;;;9.60;99.90;;;;;;5053114;28;20217;-90
2024/02/17 22:06:44;;;;;;;21.67;15.50;;;9.50;99.90;;;;;;5050416;28;20220;-90
2024/02/17 22:09:12;;;;;;;23.60;16.58;;;9.40;99.90;;;;;;5049303;28;20212;-89
2024/02/17 22:11:41;;;;;;;25.58;16.98;;;9.20;99.90;;;;;;5045365;28;20253;-90
2024/02/17 22:14:39;;;;;;;22.30;17.15;;;9.20;99.90;;;;;;5054200;28;20673;-91
2024/02/17 22:17:31;;;;;;;25.98;17.65;;;9.10;99.90;;;;;;5049232;28;20591;-90
2024/02/17 22:19:58;;;;;;;22.27;17.13;;;9.00;99.90;;;;;;5047778;28;20665;-90
2024/02/17 22:22:25;;;;;;;21.30;16.95;;;9.00;99.90;;;;;;5048739;28;20209;-90
2024/02/17 22:24:52;;;;;;;22.05;16.67;;;9.00;99.90;;;;;;5031112;28;20210;-90
2024/02/17 22:27:22;;;;;;;24.80;18.08;;;9.10;99.90;;;;;;5048221;28;20202;-90
2024/02/17 22:29:52;;;;;;;24.75;18.15;;;9.10;99.90;;;;;;5049084;28;20614;-90
2024/02/17 22:32:19;;;;;;;25.02;17.23;;;9.00;99.90;;;;;;5051572;28;21970;-91
2024/02/17 22:35:06;;;;;;;21.73;15.98;;;9.00;99.90;;;;;;5046044;28;20559;-90
2024/02/17 22:37:33;;;;;;;23.02;16.98;;;9.00;99.90;;;;;;5047452;28;20296;-90
2024/02/17 22:40:08;;;;;;;23.08;16.40;;;9.00;99.90;;;;;;5042257;28;20603;-91
2024/02/17 22:42:35;;;;;;;25.27;16.33;;;9.00;99.90;;;;;;5048995;28;20212;-90
2024/02/17 22:45:02;;;;;;;21.30;16.17;;;9.10;99.90;;;;;;5052824;28;20216;-91
2024/02/17 22:47:29;;;;;;;20.92;16.33;;;9.10;99.90;;;;;;5051434;28;20194;-91
2024/02/17 22:49:59;;;;;;;20.08;14.95;;;9.10;99.90;;;;;;5053831;28;20244;-90
2024/02/17 22:52:28;;;;;;;22.52;15.57;;;9.20;99.90;;;;;;5054375;28;20640;-90
2024/02/17 22:55:05;;;;;;;20.00;14.98;;;9.30;99.90;;;;;;5054184;28;20639;-91
2024/02/17 23:00:24;;;;;;;22.08;16.45;;;9.40;99.90;;;;;;5052777;28;20236;-90
2024/02/17 23:02:54;;;;;;;21.77;15.70;;;9.50;99.90;;;;;;5051034;28;21129;-91
2024/02/17 23:05:22;;;;;;;19.08;14.48;;;9.60;99.90;;;;;;5049679;28;20265;-90
2024/02/17 23:08:29;;;;;;;19.55;15.13;;;9.50;99.90;;;;;;5053681;28;20206;-90
2024/02/17 23:14:42;;;;;;;22.50;16.42;;;9.20;99.90;;;;;;5052080;28;20713;-90
2024/02/17 23:17:40;;;;;;;22.48;16.17;;;9.00;99.90;;;;;;5052680;28;20312;-90
2024/02/17 23:20:12;;;;;;;21.95;15.75;;;8.90;99.90;;;;;;5048267;28;20194;-90
2024/02/17 23:22:42;;;;;;;21.85;15.77;;;9.10;99.90;;;;;;5052184;28;20253;-90
2024/02/17 23:25:10;;;;;;;22.38;15.75;;;9.30;99.90;;;;;;5051241;28;20268;-89
2024/02/17 23:27:39;;;;;;;22.00;15.77;;;9.40;99.90;;;;;;5048917;28;20263;-90
2024/02/17 23:30:12;;;;;;;21.67;15.63;;;9.50;99.90;;;;;;5047252;28;20672;-90
2024/02/17 23:32:42;;;;;;;22.92;16.65;;;9.50;99.90;;;;;;5056183;28;20231;-90
2024/02/17 23:36:01;;;;;;;21.35;15.57;;;9.60;99.90;;;;;;5052597;28;20214;-90
2024/02/17 23:38:52;;;;;;;22.20;15.02;;;9.40;99.90;;;;;;5050303;28;20255;-90
2024/02/17 23:44:48;;;;;;;21.67;15.13;;;9.10;99.90;;;;;;5052447;28;20305;-90
2024/02/17 23:47:26;;;;;;;20.65;15.25;;;8.90;99.90;;;;;;5056680;28;20213;-90
2024/02/17 23:50:33;;;;;;;24.52;15.27;;;8.70;99.90;;;;;;5051393;28;20198;-90
2024/02/17 23:59:17;;;;;;;20.25;14.52;;;8.80;99.90;;;;;;5009475;28;20214;-90
